Terminal Aerodrome Forecast
Issued by NWS New Orleans/Baton Rouge, LA

Home | Current Version | Previous Version | Text Only | Print | Product List | Glossary On
Versions: 1 2 3 4 5 6 7 8 9 10 11 12 13 14 15 16
138
FTUS44 KLIX 252328
TAFBTR
TAF
KBTR 252328Z 2600/2624 11008KT P6SM VCSH BKN040
     FM260100 17007KT P6SM BKN070
     FM260700 14005KT P6SM BKN015
      TEMPO 2610/2614 BKN008
     FM261500 14006KT P6SM BKN025
     FM261700 15008KT P6SM BKN045=

USA.gov is the U.S. government's official web portal to all federal, state and local government web resources and services.